Time;durP1;ratioP1;P1;durP2;ratioP2;P2;SDS_P1;SDS_P2;PMS_P1;PMS_P2;Temp;Humidity;BMP_temperature;BMP_pressure;BME280_temperature;BME280_humidity;BME280_pressure;Samples;Min_cycle;Max_cycle;Signal;HPM_P1;HPM_P2
2022/10/14 00:03:41;;;;;;;;;;;20.60;49.80;;;;;;8431553;28;19960;-43
2022/10/14 00:07:42;;;;;;;;;;;20.60;49.80;;;;;;8431857;28;19920;-45
2022/10/14 00:11:42;;;;;;;;;;;20.60;49.80;;;;;;8430987;28;19966;-43
2022/10/14 00:15:43;;;;;;;;;;;20.60;49.80;;;;;;8431249;28;19912;-44
2022/10/14 00:19:43;;;;;;;;;;;20.60;49.80;;;;;;8431276;28;20006;-44
2022/10/14 00:23:44;;;;;;;;;;;20.60;49.80;;;;;;8430583;28;20293;-44
2022/10/14 00:27:45;;;;;;;;;;;20.50;49.80;;;;;;8431053;28;19939;-44
2022/10/14 00:31:45;;;;;;;;;;;20.50;49.80;;;;;;8430694;28;20011;-44
2022/10/14 00:36:12;;;;;;;;;;;20.60;49.90;;;;;;8430406;28;19923;-43
2022/10/14 00:40:13;;;;;;;;;;;20.60;49.90;;;;;;8427537;28;19924;-43
2022/10/14 00:44:13;;;;;;;;;;;20.50;49.80;;;;;;8430926;28;20127;-44
2022/10/14 00:48:15;;;;;;;;;;;20.50;49.80;;;;;;8429870;28;19916;-44
2022/10/14 00:52:17;;;;;;;;;;;20.50;49.80;;;;;;8430423;28;19938;-43
2022/10/14 00:56:20;;;;;;;;;;;20.50;49.90;;;;;;8430050;28;20389;-43
2022/10/14 01:00:21;;;;;;;;;;;20.50;49.80;;;;;;8429414;28;19962;-43
2022/10/14 01:04:21;;;;;;;;;;;20.50;49.90;;;;;;8424364;28;19936;-44
2022/10/14 01:08:25;;;;;;;;;;;20.50;49.90;;;;;;8424261;28;19916;-43
2022/10/14 01:12:31;;;;;;;;;;;20.50;49.90;;;;;;8429550;28;19939;-43
2022/10/14 01:16:43;;;;;;;;;;;20.50;49.90;;;;;;8429602;28;19912;-44
2022/10/14 01:20:49;;;;;;;;;;;20.50;49.90;;;;;;8429314;28;20344;-43
2022/10/14 01:24:59;;;;;;;;;;;20.50;49.90;;;;;;8429804;28;19912;-44
2022/10/14 01:29:18;;;;;;;;;;;20.40;49.90;;;;;;8429482;28;19932;-43
2022/10/14 01:33:22;;;;;;;;;;;20.50;49.90;;;;;;8429226;28;19923;-44
2022/10/14 01:37:25;;;;;;;;;;;20.50;49.90;;;;;;8434823;28;20335;-43
2022/10/14 01:41:29;;;;;;;;;;;20.50;49.90;;;;;;8436137;28;20372;-43
2022/10/14 01:45:32;;;;;;;;;;;20.50;49.90;;;;;;8435660;28;19951;-43
2022/10/14 01:49:38;;;;;;;;;;;20.50;49.90;;;;;;8436388;28;19967;-43
2022/10/14 01:53:40;;;;;;;;;;;20.40;49.90;;;;;;8435879;28;19916;-43
2022/10/14 01:57:42;;;;;;;;;;;20.40;49.90;;;;;;8435425;28;19920;-44
2022/10/14 02:01:43;;;;;;;;;;;20.40;49.90;;;;;;8435513;28;19913;-43
2022/10/14 02:05:52;;;;;;;;;;;20.40;49.90;;;;;;8434982;28;20296;-43
2022/10/14 02:09:52;;;;;;;;;;;20.40;49.90;;;;;;8435434;28;19920;-44
2022/10/14 02:14:02;;;;;;;;;;;20.40;49.90;;;;;;8435268;28;20027;-44
2022/10/14 02:18:22;;;;;;;;;;;20.40;50.00;;;;;;8434729;28;19923;-44
2022/10/14 02:22:34;;;;;;;;;;;20.40;50.00;;;;;;8435072;28;19920;-45
2022/10/14 02:26:35;;;;;;;;;;;20.40;49.90;;;;;;8434803;28;19916;-45
2022/10/14 02:30:39;;;;;;;;;;;20.40;49.90;;;;;;8434342;28;20427;-45
2022/10/14 02:34:40;;;;;;;;;;;20.40;50.50;;;;;;8434642;28;19923;-44
2022/10/14 02:38:42;;;;;;;;;;;20.40;50.00;;;;;;8433916;28;20001;-44
2022/10/14 02:42:42;;;;;;;;;;;20.40;50.00;;;;;;8434085;28;20373;-44
2022/10/14 02:46:43;;;;;;;;;;;20.40;50.00;;;;;;8434061;28;19916;-44
2022/10/14 02:50:43;;;;;;;;;;;20.40;50.00;;;;;;8433515;28;20015;-44
2022/10/14 02:54:44;;;;;;;;;;;20.40;50.00;;;;;;8433885;28;19939;-44
2022/10/14 02:58:45;;;;;;;;;;;20.40;50.10;;;;;;8433398;28;19999;-44
2022/10/14 03:02:45;;;;;;;;;;;20.40;50.00;;;;;;8433120;28;19927;-45
2022/10/14 03:06:46;;;;;;;;;;;20.40;50.00;;;;;;8433383;28;19917;-44
2022/10/14 03:10:46;;;;;;;;;;;20.40;50.10;;;;;;8433304;28;20015;-44
2022/10/14 03:14:47;;;;;;;;;;;20.30;50.00;;;;;;8432518;28;19916;-44
2022/10/14 03:18:47;;;;;;;;;;;20.40;50.10;;;;;;8414163;28;19989;-43
2022/10/14 03:22:48;;;;;;;;;;;20.40;50.10;;;;;;8432812;28;20669;-44
2022/10/14 03:26:48;;;;;;;;;;;20.40;50.20;;;;;;8432298;28;19917;-44
2022/10/14 03:30:49;;;;;;;;;;;20.40;50.20;;;;;;8432767;28;19927;-43
2022/10/14 03:34:49;;;;;;;;;;;20.40;50.20;;;;;;8432566;28;19916;-44
2022/10/14 03:38:49;;;;;;;;;;;20.40;50.10;;;;;;8431727;28;20759;-44
2022/10/14 03:42:50;;;;;;;;;;;20.40;50.20;;;;;;8432199;28;19926;-44
2022/10/14 03:46:50;;;;;;;;;;;20.40;50.10;;;;;;8432411;28;19968;-44
2022/10/14 03:50:51;;;;;;;;;;;20.40;50.10;;;;;;8431818;28;19928;-44
2022/10/14 03:54:51;;;;;;;;;;;20.40;50.10;;;;;;8431750;28;19920;-44
2022/10/14 03:58:52;;;;;;;;;;;20.40;50.10;;;;;;8431136;28;19999;-44
2022/10/14 04:02:52;;;;;;;;;;;20.40;50.10;;;;;;8430119;28;19920;-44
2022/10/14 04:06:53;;;;;;;;;;;20.40;50.10;;;;;;8431503;28;19920;-43
2022/10/14 04:10:54;;;;;;;;;;;20.40;50.10;;;;;;8431568;28;20380;-44
2022/10/14 04:14:56;;;;;;;;;;;20.40;50.10;;;;;;8430725;28;19920;-44
2022/10/14 04:18:57;;;;;;;;;;;20.40;50.10;;;;;;8431379;28;19969;-44
2022/10/14 04:22:58;;;;;;;;;;;20.40;50.10;;;;;;8431186;28;20015;-44
2022/10/14 04:26:58;;;;;;;;;;;20.40;50.00;;;;;;8412333;28;19942;-44
2022/10/14 04:30:59;;;;;;;;;;;20.40;50.00;;;;;;8431031;28;19920;-43
2022/10/14 04:34:59;;;;;;;;;;;20.40;50.10;;;;;;8430775;28;19916;-44
2022/10/14 04:39:00;;;;;;;;;;;20.40;50.00;;;;;;8430020;28;19923;-44
2022/10/14 04:43:00;;;;;;;;;;;20.40;50.10;;;;;;8430445;28;20344;-44
2022/10/14 04:47:01;;;;;;;;;;;20.40;50.10;;;;;;8430533;28;20392;-45
2022/10/14 04:51:01;;;;;;;;;;;20.40;50.10;;;;;;8429878;28;19927;-43
2022/10/14 04:55:02;;;;;;;;;;;20.40;50.10;;;;;;8430037;28;19991;-45
2022/10/14 04:59:03;;;;;;;;;;;20.40;50.10;;;;;;8429979;28;19916;-43
2022/10/14 05:03:03;;;;;;;;;;;20.40;50.10;;;;;;8429527;28;19920;-45
2022/10/14 05:07:04;;;;;;;;;;;20.30;50.00;;;;;;8429779;28;19912;-45
2022/10/14 05:11:04;;;;;;;;;;;20.40;50.10;;;;;;8429041;28;19974;-45
2022/10/14 05:15:05;;;;;;;;;;;20.40;50.10;;;;;;8429153;28;20312;-45
2022/10/14 05:19:05;;;;;;;;;;;20.40;50.10;;;;;;8429560;28;20434;-43
2022/10/14 05:23:06;;;;;;;;;;;20.40;50.10;;;;;;8429559;28;19935;-43
2022/10/14 05:27:06;;;;;;;;;;;20.30;50.10;;;;;;8428985;28;21455;-44
2022/10/14 05:31:07;;;;;;;;;;;20.30;50.10;;;;;;8429761;28;19924;-43
2022/10/14 05:35:07;;;;;;;;;;;20.30;50.10;;;;;;8429834;28;19916;-44
2022/10/14 05:39:08;;;;;;;;;;;20.30;50.10;;;;;;8428918;28;19955;-43
2022/10/14 05:43:08;;;;;;;;;;;20.30;50.10;;;;;;8429720;28;20274;-44
2022/10/14 05:47:09;;;;;;;;;;;20.30;50.20;;;;;;8429640;28;19962;-43
2022/10/14 05:51:10;;;;;;;;;;;20.30;50.20;;;;;;8410332;28;19963;-45
2022/10/14 05:55:10;;;;;;;;;;;20.30;50.20;;;;;;8428875;28;19916;-45
2022/10/14 05:59:11;;;;;;;;;;;20.30;50.20;;;;;;8428880;28;20324;-45
2022/10/14 06:03:11;;;;;;;;;;;20.30;50.20;;;;;;8428416;28;19920;-45
2022/10/14 06:07:12;;;;;;;;;;;20.30;50.20;;;;;;8429369;28;19965;-44
2022/10/14 06:11:12;;;;;;;;;;;20.30;50.20;;;;;;8428939;28;19928;-44
2022/10/14 06:15:13;;;;;;;;;;;20.30;50.10;;;;;;8428016;28;19916;-43
2022/10/14 06:19:13;;;;;;;;;;;20.30;50.20;;;;;;8428539;28;19917;-44
2022/10/14 06:23:14;;;;;;;;;;;20.30;50.20;;;;;;8432739;28;19912;-44
2022/10/14 06:27:14;;;;;;;;;;;20.30;50.20;;;;;;8434190;28;19922;-44
2022/10/14 06:31:15;;;;;;;;;;;20.30;50.20;;;;;;8434741;28;19924;-44
2022/10/14 06:35:15;;;;;;;;;;;20.30;50.20;;;;;;8433820;28;19958;-45
2022/10/14 06:39:15;;;;;;;;;;;20.30;50.20;;;;;;8433557;28;20331;-46
2022/10/14 06:43:16;;;;;;;;;;;20.30;50.10;;;;;;8434039;28;19912;-44
2022/10/14 06:47:16;;;;;;;;;;;20.30;50.20;;;;;;8434048;28;20022;-46
2022/10/14 06:51:17;;;;;;;;;;;20.30;50.20;;;;;;8433301;28;19928;-46
2022/10/14 06:55:17;;;;;;;;;;;20.30;50.20;;;;;;8434114;28;19916;-44
2022/10/14 06:59:18;;;;;;;;;;;20.30;50.20;;;;;;8433550;28;19919;-45
2022/10/14 07:03:18;;;;;;;;;;;20.30;50.70;;;;;;8432730;28;19959;-45
2022/10/14 07:07:19;;;;;;;;;;;20.30;50.20;;;;;;8433788;28;20004;-43
2022/10/14 07:11:20;;;;;;;;;;;20.30;50.20;;;;;;8418719;28;19929;-44
2022/10/14 07:15:20;;;;;;;;;;;20.30;50.20;;;;;;8399065;28;19971;-44
2022/10/14 07:19:21;;;;;;;;;;;20.30;50.20;;;;;;8392933;28;20003;-45
2022/10/14 07:23:21;;;;;;;;;;;20.30;50.20;;;;;;8421575;28;20010;-44
2022/10/14 07:27:21;;;;;;;;;;;20.30;50.20;;;;;;8432480;28;20360;-46
2022/10/14 07:31:22;;;;;;;;;;;20.30;50.80;;;;;;8432742;28;20448;-42
2022/10/14 07:35:24;;;;;;;;;;;20.30;50.20;;;;;;8431449;28;19920;-43
2022/10/14 07:39:26;;;;;;;;;;;20.30;50.20;;;;;;8431486;28;19916;-45
2022/10/14 07:43:26;;;;;;;;;;;20.30;50.20;;;;;;8432555;28;19917;-44
2022/10/14 07:47:27;;;;;;;;;;;20.30;50.20;;;;;;8432482;28;20030;-46
2022/10/14 07:51:27;;;;;;;;;;;20.30;50.30;;;;;;8431417;28;19931;-46
2022/10/14 07:55:28;;;;;;;;;;;20.30;50.30;;;;;;8432079;28;19923;-46
2022/10/14 07:59:28;;;;;;;;;;;20.30;50.30;;;;;;8431551;28;19970;-46
2022/10/14 08:03:28;;;;;;;;;;;20.30;50.30;;;;;;8431049;28;19920;-45
2022/10/14 08:07:29;;;;;;;;;;;20.30;50.20;;;;;;8431637;28;20346;-44
2022/10/14 08:11:30;;;;;;;;;;;20.30;50.20;;;;;;8431108;28;19931;-45
2022/10/14 08:15:37;;;;;;;;;;;20.20;50.20;;;;;;8430741;28;20331;-45
2022/10/14 08:19:38;;;;;;;;;;;20.30;50.20;;;;;;8431291;28;19955;-44
2022/10/14 08:23:38;;;;;;;;;;;20.30;50.20;;;;;;8431029;28;19916;-45
2022/10/14 08:27:39;;;;;;;;;;;20.30;50.70;;;;;;8430526;28;20368;-45
2022/10/14 08:31:39;;;;;;;;;;;20.30;50.30;;;;;;8430920;28;19924;-46
2022/10/14 08:35:40;;;;;;;;;;;20.30;50.30;;;;;;8430542;28;19916;-45
2022/10/14 08:39:40;;;;;;;;;;;20.30;50.30;;;;;;8429841;28;19916;-48
2022/10/14 08:43:46;;;;;;;;;;;20.30;50.30;;;;;;8430371;28;20015;-46
2022/10/14 08:47:47;;;;;;;;;;;20.30;50.30;;;;;;8430084;28;19958;-45
2022/10/14 08:51:52;;;;;;;;;;;20.30;50.70;;;;;;8429986;28;20404;-44
2022/10/14 08:55:55;;;;;;;;;;;20.30;50.60;;;;;;8430107;28;19920;-45
2022/10/14 08:59:55;;;;;;;;;;;20.30;50.60;;;;;;8429430;28;20288;-45
2022/10/14 09:03:57;;;;;;;;;;;20.30;50.60;;;;;;8429805;28;19920;-43
2022/10/14 09:07:58;;;;;;;;;;;20.30;50.60;;;;;;8429810;28;19938;-46
2022/10/14 09:12:01;;;;;;;;;;;20.30;50.60;;;;;;8429180;28;19924;-44
2022/10/14 09:16:07;;;;;;;;;;;20.30;50.80;;;;;;8429648;28;20402;-45
2022/10/14 09:20:07;;;;;;;;;;;20.30;50.70;;;;;;8429660;28;20300;-46
2022/10/14 09:24:16;;;;;;;;;;;20.30;50.70;;;;;;8429175;28;19922;-44
2022/10/14 09:28:18;;;;;;;;;;;20.30;50.60;;;;;;8429636;28;19912;-45
2022/10/14 09:32:37;;;;;;;;;;;20.30;50.50;;;;;;8429284;28;19924;-43
2022/10/14 09:36:37;;;;;;;;;;;20.30;50.60;;;;;;8428820;28;19970;-44
2022/10/14 09:40:46;;;;;;;;;;;20.30;50.60;;;;;;8429183;28;19970;-45
2022/10/14 09:45:03;;;;;;;;;;;20.30;50.50;;;;;;8428493;28;20006;-44
2022/10/14 09:49:04;;;;;;;;;;;20.30;50.60;;;;;;8428900;28;20406;-45
2022/10/14 09:53:14;;;;;;;;;;;20.30;50.50;;;;;;8429121;28;19912;-45
2022/10/14 09:57:16;;;;;;;;;;;20.30;50.50;;;;;;8431208;28;19916;-46
2022/10/14 10:01:18;;;;;;;;;;;20.30;50.50;;;;;;8435313;28;19916;-44
2022/10/14 10:05:24;;;;;;;;;;;20.30;50.60;;;;;;8434249;28;19926;-45
2022/10/14 10:09:25;;;;;;;;;;;20.30;50.40;;;;;;8434757;28;19950;-43
2022/10/14 10:13:43;;;;;;;;;;;20.40;50.50;;;;;;8435420;28;19912;-43
2022/10/14 10:17:46;;;;;;;;;;;20.40;50.40;;;;;;8435118;28;19981;-44
2022/10/14 10:21:46;;;;;;;;;;;20.40;50.40;;;;;;8435196;28;19916;-44
2022/10/14 10:25:47;;;;;;;;;;;20.40;50.50;;;;;;8434819;28;19923;-44
2022/10/14 10:29:47;;;;;;;;;;;20.40;50.40;;;;;;8434076;28;19935;-46
2022/10/14 10:34:00;;;;;;;;;;;20.40;50.50;;;;;;8435203;28;19939;-45
2022/10/14 10:38:07;;;;;;;;;;;20.40;50.50;;;;;;8416815;28;20006;-45
2022/10/14 10:42:21;;;;;;;;;;;20.40;50.40;;;;;;8434169;28;19916;-46
2022/10/14 10:46:40;;;;;;;;;;;20.40;50.50;;;;;;8434256;28;19973;-46
2022/10/14 10:50:52;;;;;;;;;;;20.40;50.50;;;;;;8434165;28;19976;-45
2022/10/14 10:54:52;;;;;;;;;;;20.40;50.40;;;;;;8415732;28;19920;-46
2022/10/14 10:59:22;;;;;;;;;;;20.40;50.40;;;;;;8433675;28;19912;-44
2022/10/14 11:03:35;;;;;;;;;;;20.40;50.40;;;;;;8378185;28;19935;-45
2022/10/14 11:12:21;;;;;;;;;;;20.40;50.50;;;;;;8432820;28;19973;-46
2022/10/14 11:16:22;;;;;;;;;;;20.40;50.50;;;;;;8433435;28;19920;-46
2022/10/14 11:20:43;;;;;;;;;;;20.40;50.40;;;;;;8432802;28;20042;-45
2022/10/14 11:24:44;;;;;;;;;;;20.40;50.40;;;;;;8432457;28;19916;-45
2022/10/14 11:28:47;;;;;;;;;;;20.40;50.40;;;;;;8433081;28;19935;-46
2022/10/14 11:32:50;;;;;;;;;;;20.40;50.40;;;;;;8432110;28;19919;-46
2022/10/14 11:36:51;;;;;;;;;;;20.40;50.40;;;;;;8432906;28;19978;-45
2022/10/14 11:41:01;;;;;;;;;;;20.50;50.50;;;;;;8432486;28;19932;-46
2022/10/14 11:45:16;;;;;;;;;;;20.50;50.50;;;;;;8431734;28;19925;-46
2022/10/14 11:49:20;;;;;;;;;;;20.50;50.50;;;;;;8432308;28;19928;-47
2022/10/14 11:53:30;;;;;;;;;;;20.50;50.50;;;;;;8432200;28;19916;-45
2022/10/14 11:57:36;;;;;;;;;;;20.50;50.40;;;;;;8431404;28;19916;-45
2022/10/14 12:01:41;;;;;;;;;;;20.50;50.50;;;;;;8431639;28;19923;-46
2022/10/14 12:05:41;;;;;;;;;;;20.50;50.40;;;;;;8431138;28;19990;-46
2022/10/14 12:09:54;;;;;;;;;;;20.50;50.40;;;;;;8431545;28;19924;-45
2022/10/14 12:14:12;;;;;;;;;;;20.50;50.40;;;;;;8431277;28;19919;-45
2022/10/14 12:18:13;;;;;;;;;;;20.50;50.40;;;;;;8430397;28;20353;-45
2022/10/14 12:22:24;;;;;;;;;;;20.50;50.50;;;;;;8430538;28;19915;-45
2022/10/14 12:26:32;;;;;;;;;;;20.50;50.40;;;;;;8430467;28;19923;-45
2022/10/14 12:30:35;;;;;;;;;;;20.50;50.40;;;;;;8430121;28;20008;-44
2022/10/14 12:34:35;;;;;;;;;;;20.50;50.40;;;;;;8430973;28;19912;-45
2022/10/14 12:38:36;;;;;;;;;;;20.50;50.40;;;;;;8430473;28;19969;-44
2022/10/14 12:42:50;;;;;;;;;;;20.50;50.50;;;;;;8430273;28;20361;-45
2022/10/14 12:46:51;;;;;;;;;;;20.50;50.50;;;;;;8430733;28;19916;-46
2022/10/14 12:50:56;;;;;;;;;;;20.60;50.50;;;;;;8411432;28;19932;-45
2022/10/14 12:54:59;;;;;;;;;;;20.50;50.40;;;;;;8430314;28;19916;-45
2022/10/14 12:59:00;;;;;;;;;;;20.60;50.60;;;;;;8430312;28;19912;-45
2022/10/14 13:03:02;;;;;;;;;;;20.50;50.40;;;;;;8413373;28;19967;-46
2022/10/14 13:07:12;;;;;;;;;;;20.60;50.60;;;;;;8381806;28;19921;-45
2022/10/14 13:11:13;;;;;;;;;;;20.50;50.50;;;;;;8417134;28;19934;-46
2022/10/14 13:15:33;;;;;;;;;;;20.60;50.50;;;;;;8429170;28;19955;-46
2022/10/14 13:19:33;;;;;;;;;;;20.60;50.50;;;;;;8430040;28;19939;-45
2022/10/14 13:23:42;;;;;;;;;;;20.50;50.50;;;;;;8429352;28;19944;-45
2022/10/14 13:27:47;;;;;;;;;;;20.60;50.50;;;;;;8429347;28;19920;-46
2022/10/14 13:31:57;;;;;;;;;;;20.60;50.50;;;;;;8431423;28;20022;-47
2022/10/14 13:36:02;;;;;;;;;;;20.60;50.50;;;;;;8435859;28;19916;-47
2022/10/14 13:40:15;;;;;;;;;;;20.50;50.50;;;;;;8436599;28;19978;-46
2022/10/14 13:44:20;;;;;;;;;;;20.50;50.60;;;;;;8436663;28;19916;-46
2022/10/14 13:48:31;;;;;;;;;;;20.50;50.60;;;;;;8435464;28;19916;-45
2022/10/14 13:52:32;;;;;;;;;;;20.50;50.60;;;;;;8435940;28;19989;-49
2022/10/14 13:56:33;;;;;;;;;;;20.60;50.60;;;;;;8435634;28;19970;-47
2022/10/14 14:00:34;;;;;;;;;;;20.50;50.60;;;;;;8434855;28;20373;-45
2022/10/14 14:04:35;;;;;;;;;;;20.50;50.60;;;;;;8435957;28;19920;-46
2022/10/14 14:08:43;;;;;;;;;;;20.50;50.60;;;;;;8435317;28;19916;-45
2022/10/14 14:12:44;;;;;;;;;;;20.50;50.60;;;;;;8434890;28;20342;-46
2022/10/14 14:16:50;;;;;;;;;;;20.50;50.60;;;;;;8435207;28;19913;-45
2022/10/14 14:20:56;;;;;;;;;;;20.50;50.70;;;;;;8434228;28;19962;-46
2022/10/14 14:25:09;;;;;;;;;;;20.50;50.60;;;;;;8435377;28;19957;-45
2022/10/14 14:29:19;;;;;;;;;;;20.50;51.00;;;;;;8434473;28;19927;-45
2022/10/14 14:33:30;;;;;;;;;;;20.50;51.20;;;;;;8434174;28;19916;-46
2022/10/14 14:37:32;;;;;;;;;;;20.50;51.10;;;;;;8434471;28;19916;-46
2022/10/14 14:41:33;;;;;;;;;;;20.50;51.30;;;;;;8434285;28;19920;-47
2022/10/14 14:45:41;;;;;;;;;;;20.50;51.50;;;;;;8434167;28;20467;-45
2022/10/14 14:49:44;;;;;;;;;;;20.50;51.60;;;;;;8434631;28;19960;-45
2022/10/14 14:53:52;;;;;;;;;;;20.50;51.60;;;;;;8415631;28;20289;-45
2022/10/14 14:57:58;;;;;;;;;;;20.50;51.70;;;;;;8433869;28;19977;-46
2022/10/14 15:01:59;;;;;;;;;;;20.50;52.00;;;;;;8434072;28;20272;-46
2022/10/14 15:06:02;;;;;;;;;;;20.50;51.80;;;;;;8433481;28;20062;-47
2022/10/14 15:10:04;;;;;;;;;;;20.40;52.00;;;;;;8434041;28;20349;-46
2022/10/14 15:14:04;;;;;;;;;;;20.50;52.10;;;;;;8433390;28;19916;-48
2022/10/14 15:18:18;;;;;;;;;;;20.50;52.10;;;;;;8432717;28;19917;-46
2022/10/14 15:22:20;;;;;;;;;;;20.50;52.10;;;;;;8433176;28;19942;-45
2022/10/14 15:26:21;;;;;;;;;;;20.40;51.80;;;;;;8433088;28;20380;-46
2022/10/14 15:30:26;;;;;;;;;;;20.40;52.00;;;;;;8432551;28;19920;-45
2022/10/14 15:34:26;;;;;;;;;;;20.40;51.70;;;;;;8432745;28;19916;-46
2022/10/14 15:38:27;;;;;;;;;;;20.40;51.50;;;;;;8432460;28;19922;-47
2022/10/14 15:42:28;;;;;;;;;;;20.40;51.50;;;;;;8432014;28;19916;-46
2022/10/14 15:50:48;;;;;;;;;;;20.40;51.50;;;;;;8451699;28;19969;-45
2022/10/14 15:54:49;;;;;;;;;;;20.40;51.50;;;;;;8432935;28;20393;-45
2022/10/14 15:58:50;;;;;;;;;;;20.40;51.50;;;;;;8432062;28;19970;-47
2022/10/14 16:02:53;;;;;;;;;;;20.40;51.50;;;;;;8431415;28;19920;-45
2022/10/14 16:06:54;;;;;;;;;;;20.40;51.50;;;;;;8420322;28;20284;-44
2022/10/14 16:10:56;;;;;;;;;;;20.40;51.50;;;;;;8431976;28;19924;-44
2022/10/14 16:14:57;;;;;;;;;;;20.40;51.60;;;;;;8430911;28;19985;-45
2022/10/14 16:19:01;;;;;;;;;;;20.40;51.60;;;;;;8431592;28;19939;-45
2022/10/14 16:23:03;;;;;;;;;;;20.40;51.50;;;;;;8431217;28;19962;-46
2022/10/14 16:27:03;;;;;;;;;;;20.40;51.50;;;;;;8430750;28;19916;-46
2022/10/14 16:31:04;;;;;;;;;;;20.40;51.50;;;;;;8431469;28;20024;-44
2022/10/14 16:35:05;;;;;;;;;;;20.40;51.50;;;;;;8430957;28;19940;-45
2022/10/14 16:39:05;;;;;;;;;;;20.40;51.50;;;;;;8430329;28;19993;-44
2022/10/14 16:43:06;;;;;;;;;;;20.40;51.50;;;;;;8430590;28;20329;-46
2022/10/14 16:47:18;;;;;;;;;;;20.40;51.50;;;;;;8430792;28;20385;-45
2022/10/14 16:51:18;;;;;;;;;;;20.40;51.40;;;;;;8430260;28;19920;-46
2022/10/14 16:55:19;;;;;;;;;;;20.40;51.40;;;;;;8430377;28;19920;-45
2022/10/14 16:59:20;;;;;;;;;;;20.40;51.40;;;;;;8430432;28;19917;-46
2022/10/14 17:03:21;;;;;;;;;;;20.50;51.40;;;;;;8429808;28;19927;-44
2022/10/14 17:07:21;;;;;;;;;;;20.40;51.40;;;;;;8430461;28;19912;-46
2022/10/14 17:11:22;;;;;;;;;;;20.40;51.40;;;;;;8430079;28;19928;-45
2022/10/14 17:15:23;;;;;;;;;;;20.40;51.50;;;;;;8429507;28;20266;-44
2022/10/14 17:19:24;;;;;;;;;;;20.40;52.00;;;;;;8430239;28;19919;-43
2022/10/14 17:23:24;;;;;;;;;;;20.40;51.50;;;;;;8429699;28;19935;-45
2022/10/14 17:27:25;;;;;;;;;;;20.40;51.40;;;;;;8429307;28;20357;-44
2022/10/14 17:31:25;;;;;;;;;;;20.40;51.40;;;;;;8429927;28;20001;-45
2022/10/14 17:35:26;;;;;;;;;;;20.40;51.40;;;;;;8429568;28;19922;-44
2022/10/14 17:39:27;;;;;;;;;;;20.40;51.50;;;;;;8429008;28;19917;-44
2022/10/14 17:43:27;;;;;;;;;;;20.40;51.50;;;;;;8429471;28;19916;-45
2022/10/14 17:47:27;;;;;;;;;;;20.40;51.40;;;;;;8429497;28;20368;-46
2022/10/14 17:51:28;;;;;;;;;;;20.40;51.40;;;;;;8428932;28;19924;-54
2022/10/14 17:55:29;;;;;;;;;;;20.40;51.40;;;;;;8429397;28;19916;-45
2022/10/14 17:59:29;;;;;;;;;;;20.40;51.40;;;;;;8429090;28;19916;-45
2022/10/14 18:03:31;;;;;;;;;;;20.40;51.40;;;;;;8428655;28;19943;-44
2022/10/14 18:07:36;;;;;;;;;;;20.40;51.50;;;;;;8429473;28;19924;-44
2022/10/14 18:11:41;;;;;;;;;;;20.40;51.50;;;;;;8429188;28;20011;-43
2022/10/14 18:15:43;;;;;;;;;;;20.40;51.40;;;;;;8429110;28;19916;-44
2022/10/14 18:19:43;;;;;;;;;;;20.40;51.50;;;;;;8434175;28;19998;-43
2022/10/14 18:23:44;;;;;;;;;;;20.40;51.50;;;;;;8434738;28;19912;-45
2022/10/14 18:27:44;;;;;;;;;;;20.40;51.60;;;;;;8434958;28;19919;-44
2022/10/14 18:31:45;;;;;;;;;;;20.40;51.40;;;;;;8435166;28;20305;-44
2022/10/14 18:35:46;;;;;;;;;;;20.40;51.50;;;;;;8434239;28;19916;-47
2022/10/14 18:39:47;;;;;;;;;;;20.40;51.50;;;;;;8434619;28;19923;-46
2022/10/14 18:43:47;;;;;;;;;;;20.40;51.50;;;;;;8434375;28;19912;-44
2022/10/14 18:47:48;;;;;;;;;;;20.40;51.60;;;;;;8434254;28;20387;-45
2022/10/14 18:51:49;;;;;;;;;;;20.40;51.70;;;;;;8434445;28;19962;-44
2022/10/14 18:55:49;;;;;;;;;;;20.40;51.70;;;;;;8433869;28;20266;-45
2022/10/14 18:59:50;;;;;;;;;;;20.40;51.70;;;;;;8433568;28;19916;-44
2022/10/14 19:03:51;;;;;;;;;;;20.40;51.80;;;;;;8434111;28;20130;-42
2022/10/14 19:07:53;;;;;;;;;;;20.40;51.80;;;;;;8423437;28;19920;-44
2022/10/14 19:11:54;;;;;;;;;;;20.40;52.00;;;;;;8401659;28;19920;-46
2022/10/14 19:15:58;;;;;;;;;;;20.40;51.90;;;;;;8433524;28;19991;-44
2022/10/14 19:19:59;;;;;;;;;;;20.40;51.80;;;;;;8433333;28;19945;-44
2022/10/14 19:24:00;;;;;;;;;;;20.30;51.80;;;;;;8432802;28;19923;-44
2022/10/14 19:28:01;;;;;;;;;;;20.30;51.90;;;;;;8432624;28;20017;-44
2022/10/14 19:32:01;;;;;;;;;;;20.40;52.00;;;;;;8432603;28;19920;-45
2022/10/14 19:36:02;;;;;;;;;;;20.40;51.90;;;;;;8432419;28;20015;-45
2022/10/14 19:40:02;;;;;;;;;;;20.40;52.10;;;;;;8432994;28;19920;-45
2022/10/14 19:44:03;;;;;;;;;;;20.40;52.10;;;;;;8432584;28;19927;-45
2022/10/14 19:48:04;;;;;;;;;;;20.30;52.10;;;;;;8432013;28;20424;-46
2022/10/14 19:52:05;;;;;;;;;;;20.40;52.00;;;;;;8432918;28;19943;-47
2022/10/14 19:56:09;;;;;;;;;;;20.40;52.10;;;;;;8432142;28;19916;-46
2022/10/14 20:00:10;;;;;;;;;;;20.40;52.20;;;;;;8431504;28;19991;-45
2022/10/14 20:04:12;;;;;;;;;;;20.40;52.10;;;;;;8431208;28;20538;-45
2022/10/14 20:08:13;;;;;;;;;;;20.40;52.30;;;;;;8431915;28;19918;-43
2022/10/14 20:12:13;;;;;;;;;;;20.40;52.30;;;;;;8431133;28;20343;-44
2022/10/14 20:16:14;;;;;;;;;;;20.30;52.20;;;;;;8431527;28;19924;-46
2022/10/14 20:20:14;;;;;;;;;;;20.40;52.40;;;;;;8431342;28;19919;-45
2022/10/14 20:24:15;;;;;;;;;;;20.40;52.20;;;;;;8430786;28;20392;-44
2022/10/14 20:28:18;;;;;;;;;;;20.40;52.40;;;;;;8431223;28;19989;-45
2022/10/14 20:32:19;;;;;;;;;;;20.40;52.30;;;;;;8431233;28;19931;-44
2022/10/14 20:36:20;;;;;;;;;;;20.40;52.30;;;;;;8430346;28;19916;-44
2022/10/14 20:40:20;;;;;;;;;;;20.40;52.40;;;;;;8430565;28;19916;-45
2022/10/14 20:44:21;;;;;;;;;;;20.40;52.40;;;;;;8430638;28;19919;-44
2022/10/14 20:48:21;;;;;;;;;;;20.30;52.40;;;;;;8429884;28;19916;-45
2022/10/14 20:52:22;;;;;;;;;;;20.30;52.40;;;;;;8430575;28;20170;-45
2022/10/14 20:56:23;;;;;;;;;;;20.30;52.60;;;;;;8430395;28;20007;-44
2022/10/14 21:00:23;;;;;;;;;;;20.30;52.50;;;;;;8429697;28;19924;-45
2022/10/14 21:04:23;;;;;;;;;;;20.30;52.60;;;;;;8430331;28;19928;-45
2022/10/14 21:08:24;;;;;;;;;;;20.30;52.60;;;;;;8430289;28;20682;-45
2022/10/14 21:12:24;;;;;;;;;;;20.30;52.70;;;;;;8429711;28;20395;-45
2022/10/14 21:16:26;;;;;;;;;;;20.30;52.60;;;;;;8429812;28;20385;-45
2022/10/14 21:20:26;;;;;;;;;;;20.40;52.80;;;;;;8429744;28;19966;-44
2022/10/14 21:24:27;;;;;;;;;;;20.30;52.70;;;;;;8429266;28;19916;-45
2022/10/14 21:28:27;;;;;;;;;;;20.40;52.90;;;;;;8429759;28;19934;-46
2022/10/14 21:32:28;;;;;;;;;;;20.30;52.90;;;;;;8429966;28;19920;-45
2022/10/14 21:36:28;;;;;;;;;;;20.30;52.90;;;;;;8429120;28;19920;-46
2022/10/14 21:40:29;;;;;;;;;;;20.30;52.90;;;;;;8429371;28;20362;-45
2022/10/14 21:44:29;;;;;;;;;;;20.30;53.50;;;;;;8429347;28;20292;-45
2022/10/14 21:48:30;;;;;;;;;;;20.30;53.10;;;;;;8428675;28;19999;-45
2022/10/14 21:52:30;;;;;;;;;;;20.30;53.00;;;;;;8431288;28;19947;-45
2022/10/14 21:56:31;;;;;;;;;;;20.30;53.20;;;;;;8436093;28;19916;-45
2022/10/14 22:00:31;;;;;;;;;;;20.30;53.20;;;;;;8434564;28;19970;-45
2022/10/14 22:04:32;;;;;;;;;;;20.30;53.50;;;;;;8420148;28;19920;-44
2022/10/14 22:08:36;;;;;;;;;;;20.30;53.50;;;;;;8401092;28;19917;-44
2022/10/14 22:12:37;;;;;;;;;;;20.30;53.40;;;;;;8409203;28;20365;-45
2022/10/14 22:16:37;;;;;;;;;;;20.30;53.30;;;;;;8435586;28;19922;-45
2022/10/14 22:20:38;;;;;;;;;;;20.30;53.30;;;;;;8435231;28;19977;-44
2022/10/14 22:24:38;;;;;;;;;;;20.30;53.50;;;;;;8434665;28;20386;-44
2022/10/14 22:28:39;;;;;;;;;;;20.30;53.50;;;;;;8434984;28;20388;-45
2022/10/14 22:32:39;;;;;;;;;;;20.30;53.50;;;;;;8435159;28;19927;-45
2022/10/14 22:36:40;;;;;;;;;;;20.30;53.60;;;;;;8434220;28;19951;-45
2022/10/14 22:40:40;;;;;;;;;;;20.30;53.80;;;;;;8434612;28;19969;-45
2022/10/14 22:44:40;;;;;;;;;;;20.30;53.70;;;;;;8434486;28;19916;-45
2022/10/14 22:48:41;;;;;;;;;;;20.20;53.70;;;;;;8434151;28;20331;-44
2022/10/14 22:52:41;;;;;;;;;;;20.30;53.90;;;;;;8434270;28;20296;-44
2022/10/14 22:56:42;;;;;;;;;;;20.30;54.00;;;;;;8433736;28;19916;-44
2022/10/14 23:00:42;;;;;;;;;;;20.20;53.60;;;;;;8433947;28;20351;-44
2022/10/14 23:04:43;;;;;;;;;;;20.20;53.80;;;;;;8433641;28;19930;-44
2022/10/14 23:08:43;;;;;;;;;;;20.20;53.90;;;;;;8433620;28;19935;-45
2022/10/14 23:12:44;;;;;;;;;;;20.20;53.90;;;;;;8433674;28;19923;-44
2022/10/14 23:16:44;;;;;;;;;;;20.20;53.90;;;;;;8433692;28;19924;-45
2022/10/14 23:20:45;;;;;;;;;;;20.20;53.70;;;;;;8432860;28;20432;-45
2022/10/14 23:24:45;;;;;;;;;;;20.20;54.00;;;;;;8433586;28;19977;-43
2022/10/14 23:28:46;;;;;;;;;;;20.20;53.90;;;;;;8433618;28;20018;-43
2022/10/14 23:32:46;;;;;;;;;;;20.20;54.00;;;;;;8432688;28;19927;-44
2022/10/14 23:36:47;;;;;;;;;;;20.20;53.70;;;;;;8432714;28;19916;-44
2022/10/14 23:40:47;;;;;;;;;;;20.20;54.20;;;;;;8432970;28;19923;-43